createdAt,value
2023-11-11T00:04:50.902Z,9.30
2023-11-11T00:10:52.835Z,10.85
2023-11-11T00:16:54.708Z,10.35
2023-11-11T00:22:56.603Z,7.63
2023-11-11T00:28:58.422Z,8.73
2023-11-11T00:35:01.255Z,7.97
2023-11-11T00:41:05.941Z,13.10
2023-11-11T00:47:07.836Z,7.38
2023-11-11T00:53:09.751Z,11.27
2023-11-11T00:59:11.650Z,8.52
2023-11-11T01:05:14.774Z,8.50
2023-11-11T01:11:16.784Z,9.95
2023-11-11T01:17:20.090Z,11.90
2023-11-11T01:23:22.155Z,7.28
2023-11-11T01:29:26.291Z,7.50
2023-11-11T01:35:28.203Z,10.45
2023-11-11T01:41:30.106Z,7.53
2023-11-11T01:47:32.277Z,6.05
2023-11-11T01:53:35.565Z,6.70
2023-11-11T01:59:39.849Z,5.10
2023-11-11T02:05:43.760Z,6.65
2023-11-11T02:11:48.900Z,8.73
2023-11-11T02:17:50.860Z,5.45
2023-11-11T02:23:53.395Z,5.30
2023-11-11T02:29:55.249Z,9.05
2023-11-11T02:35:57.625Z,7.53
2023-11-11T02:42:00.485Z,11.18
2023-11-11T02:48:02.730Z,6.50
2023-11-11T02:54:04.647Z,11.02
2023-11-11T03:00:11.575Z,11.10
2023-11-11T03:06:13.874Z,7.60
2023-11-11T03:12:15.964Z,5.93
2023-11-11T03:18:17.926Z,11.23
2023-11-11T03:24:19.870Z,9.90
2023-11-11T03:30:22.652Z,7.30
2023-11-11T03:36:24.583Z,5.65
2023-11-11T03:42:26.491Z,7.18
2023-11-11T03:48:30.052Z,11.40
2023-11-11T03:54:31.984Z,6.07
2023-11-11T04:00:33.936Z,8.48
2023-11-11T04:06:37.001Z,5.30
2023-11-11T04:12:40.257Z,7.75
2023-11-11T04:18:43.156Z,6.95
2023-11-11T04:24:45.311Z,10.00
2023-11-11T04:30:47.181Z,5.30
2023-11-11T04:36:49.381Z,8.82
2023-11-11T04:42:51.231Z,3.75
2023-11-11T04:48:53.130Z,1.88
2023-11-11T04:54:55.028Z,2.50
2023-11-11T05:00:56.947Z,1.10
2023-11-11T05:06:59.338Z,1.58
2023-11-11T05:13:02.690Z,2.00
2023-11-11T05:19:05.350Z,1.63
2023-11-11T05:25:07.992Z,1.13
2023-11-11T05:31:10.723Z,3.10
2023-11-11T05:37:12.715Z,0.93
2023-11-11T05:43:15.447Z,0.70
2023-11-11T05:49:17.318Z,1.05
2023-11-11T05:55:19.638Z,0.30
2023-11-11T06:01:21.768Z,2.42
2023-11-11T06:07:24.239Z,0.65
2023-11-11T06:13:26.094Z,1.80
2023-11-11T06:19:27.987Z,0.80
2023-11-11T06:25:32.204Z,1.05
2023-11-11T06:31:34.251Z,0.40
2023-11-11T06:37:39.482Z,1.83
2023-11-11T06:43:41.357Z,1.38
2023-11-11T06:49:43.186Z,0.30
2023-11-11T06:55:47.185Z,2.85
2023-11-11T07:01:49.265Z,1.85
2023-11-11T07:07:51.170Z,1.00
2023-11-11T07:13:53.280Z,1.92
2023-11-11T07:19:55.741Z,4.35
2023-11-11T07:25:57.912Z,2.38
2023-11-11T07:32:00.268Z,2.55
2023-11-11T07:38:02.384Z,4.68
2023-11-11T07:44:07.205Z,3.28
2023-11-11T07:50:10.768Z,4.18
2023-11-11T07:56:12.634Z,5.20
2023-11-11T08:02:15.859Z,10.23
2023-11-11T08:08:17.835Z,8.32
2023-11-11T08:14:19.809Z,9.98
2023-11-11T08:20:22.202Z,10.43
2023-11-11T08:26:24.258Z,11.70
2023-11-11T08:32:26.242Z,9.50
2023-11-11T08:38:28.120Z,12.43
2023-11-11T08:44:30.488Z,11.93
2023-11-11T08:50:32.389Z,11.90
2023-11-11T08:56:34.240Z,12.05
2023-11-11T09:02:39.823Z,8.20
2023-11-11T09:08:43.271Z,8.05
2023-11-11T09:14:45.295Z,24.45
2023-11-11T09:20:47.252Z,12.82
2023-11-11T09:32:59.280Z,8.77
2023-11-11T09:39:01.232Z,7.97
2023-11-11T09:51:10.245Z,7.65
2023-11-11T09:57:13.721Z,9.38
2023-11-11T10:03:15.862Z,8.13
2023-11-11T10:09:19.512Z,8.88
2023-11-11T10:15:22.899Z,7.68
2023-11-11T10:21:26.010Z,8.90
2023-11-11T10:27:29.617Z,8.43
2023-11-11T10:33:31.538Z,4.93
2023-11-11T10:39:40.382Z,3.17
2023-11-11T10:45:43.055Z,6.97
2023-11-11T10:51:46.993Z,5.18
2023-11-11T10:57:50.131Z,6.22
2023-11-11T11:03:52.810Z,7.75
2023-11-11T11:10:03.642Z,6.70
2023-11-11T11:16:07.352Z,5.65
2023-11-11T11:22:12.678Z,5.85
2023-11-11T11:28:15.510Z,4.82
2023-11-11T11:34:17.682Z,5.88
2023-11-11T11:40:20.214Z,7.60
2023-11-11T11:46:23.070Z,3.60
2023-11-11T11:52:25.091Z,6.68
2023-11-11T11:58:27.131Z,5.93
2023-11-11T12:04:29.764Z,5.03
2023-11-11T12:10:47.649Z,4.57
2023-11-11T12:22:53.345Z,5.70
2023-11-11T12:28:56.481Z,2.60
2023-11-11T12:34:58.737Z,6.75
2023-11-11T12:41:11.417Z,6.43
2023-11-11T12:47:13.786Z,5.07
2023-11-11T12:53:16.565Z,5.65
2023-11-11T12:59:18.486Z,5.90
2023-11-11T13:05:20.409Z,7.55
2023-11-11T13:11:22.308Z,7.40
2023-11-11T13:17:30.798Z,8.18
2023-11-11T13:23:32.933Z,8.27
2023-11-11T13:29:34.918Z,11.50
2023-11-11T13:35:37.689Z,11.68
2023-11-11T13:41:39.866Z,15.18
2023-11-11T13:47:41.790Z,12.95
2023-11-11T13:53:47.633Z,19.23
2023-11-11T13:59:50.014Z,11.27
2023-11-11T14:05:51.852Z,10.80
2023-11-11T14:11:53.726Z,13.13
2023-11-11T14:17:56.035Z,12.68
2023-11-11T14:23:58.034Z,9.93
2023-11-11T14:29:59.872Z,6.88
2023-11-11T14:36:01.917Z,7.70
2023-11-11T14:42:03.983Z,6.28
2023-11-11T14:48:06.066Z,6.90
2023-11-11T14:54:08.491Z,7.40
2023-11-11T15:00:11.859Z,6.55
2023-11-11T15:06:13.852Z,9.40
2023-11-11T15:12:18.057Z,11.70
2023-11-11T15:18:21.904Z,10.65
2023-11-11T15:24:26.021Z,9.63
2023-11-11T15:30:27.999Z,11.77
2023-11-11T15:36:29.811Z,11.95
2023-11-11T15:42:32.043Z,15.27
2023-11-11T15:48:35.581Z,12.48
2023-11-11T15:54:37.933Z,12.73
2023-11-11T16:00:39.794Z,16.88
2023-11-11T16:06:41.702Z,18.23
2023-11-11T16:12:43.793Z,9.35
2023-11-11T16:18:46.582Z,11.43
2023-11-11T16:24:48.409Z,14.63
2023-11-11T16:30:50.368Z,14.98
2023-11-11T16:36:52.217Z,12.38
2023-11-11T16:42:54.019Z,15.68
2023-11-11T16:48:55.820Z,14.90
2023-11-11T16:54:57.742Z,11.38
2023-11-11T17:00:59.551Z,13.35
2023-11-11T17:07:02.416Z,15.73
2023-11-11T17:13:07.934Z,14.15
2023-11-11T17:19:10.614Z,15.98
2023-11-11T17:25:12.650Z,11.80
2023-11-11T17:31:14.538Z,13.63
2023-11-11T17:37:16.351Z,9.63
2023-11-11T17:43:18.186Z,12.40
2023-11-11T17:49:20.120Z,17.95
2023-11-11T17:55:22.594Z,13.57
2023-11-11T18:01:24.402Z,10.30
2023-11-11T18:07:26.963Z,15.30
2023-11-11T18:13:29.100Z,18.08
2023-11-11T18:19:30.987Z,16.50
2023-11-11T18:25:32.932Z,16.00
2023-11-11T18:31:34.975Z,13.48
2023-11-11T18:37:36.977Z,16.25
2023-11-11T18:43:39.304Z,13.25
2023-11-11T18:49:41.281Z,11.88
2023-11-11T18:55:48.404Z,16.80
2023-11-11T19:01:50.456Z,17.88
2023-11-11T19:07:52.673Z,13.00
2023-11-11T19:13:54.705Z,19.45
2023-11-11T19:19:56.646Z,13.98
2023-11-11T19:25:58.665Z,19.38
2023-11-11T19:32:00.744Z,14.48
2023-11-11T19:38:03.753Z,19.33
2023-11-11T19:44:06.756Z,26.33
2023-11-11T19:50:08.995Z,15.77
2023-11-11T19:56:11.054Z,16.98
2023-11-11T20:02:12.975Z,17.02
2023-11-11T20:08:14.866Z,19.15
2023-11-11T20:14:16.869Z,18.77
2023-11-11T20:20:18.826Z,18.23
2023-11-11T20:26:20.814Z,18.08
2023-11-11T20:32:24.401Z,16.27
2023-11-11T20:38:26.536Z,17.85
2023-11-11T20:44:28.369Z,19.38
2023-11-11T20:50:30.284Z,22.05
2023-11-11T20:56:33.362Z,20.65
2023-11-11T21:02:36.462Z,24.45
2023-11-11T21:08:40.032Z,19.98
2023-11-11T21:14:41.998Z,19.83
2023-11-11T21:20:44.128Z,20.73
2023-11-11T21:26:49.324Z,22.08
2023-11-11T21:32:52.323Z,19.48
2023-11-11T21:38:54.230Z,16.75
2023-11-11T21:44:56.518Z,18.67
2023-11-11T21:50:58.372Z,22.80
2023-11-11T21:57:00.642Z,26.55
2023-11-11T22:03:02.736Z,22.70
2023-11-11T22:09:07.161Z,25.30
2023-11-11T22:15:09.517Z,23.58
2023-11-11T22:21:11.383Z,24.42
2023-11-11T22:27:13.257Z,24.20
2023-11-11T22:33:16.065Z,24.83
2023-11-11T22:39:18.078Z,24.17
2023-11-11T22:45:20.057Z,21.08
2023-11-11T22:51:22.928Z,21.88
2023-11-11T22:57:24.869Z,23.67
2023-11-11T23:03:27.981Z,21.20
2023-11-11T23:09:29.857Z,17.67
2023-11-11T23:15:32.104Z,15.80
2023-11-11T23:21:34.243Z,17.35
2023-11-11T23:27:36.252Z,18.38
2023-11-11T23:33:38.334Z,20.48
2023-11-11T23:39:42.296Z,19.38
2023-11-11T23:45:44.418Z,17.52
2023-11-11T23:51:49.359Z,21.85
2023-11-11T23:57:52.065Z,18.38
